createdAt,value
2022-12-24T00:01:17.077Z,10.45
2022-12-24T00:03:48.699Z,10.48
2022-12-24T00:06:25.122Z,10.98
2022-12-24T00:08:54.804Z,11.05
2022-12-24T00:11:42.106Z,10.80
2022-12-24T00:14:24.585Z,11.70
2022-12-24T00:17:11.808Z,11.43
2022-12-24T00:19:43.164Z,11.60
2022-12-24T00:25:14.034Z,10.38
2022-12-24T00:28:04.608Z,10.63
2022-12-24T00:30:33.917Z,11.05
2022-12-24T00:33:20.800Z,10.73
2022-12-24T00:36:08.526Z,11.23
2022-12-24T00:38:50.663Z,11.70
2022-12-24T00:41:35.277Z,11.48
2022-12-24T00:44:09.749Z,11.43
2022-12-24T00:46:41.020Z,11.05
2022-12-24T00:49:15.906Z,11.68
2022-12-24T00:51:47.635Z,11.60
2022-12-24T00:54:21.975Z,12.43
2022-12-24T00:56:51.170Z,12.00
2022-12-24T00:59:33.238Z,12.77
2022-12-24T01:02:03.148Z,12.02
2022-12-24T01:04:50.307Z,12.73
2022-12-24T01:07:21.514Z,13.35
2022-12-24T01:09:56.084Z,9.63
2022-12-24T01:12:38.231Z,12.27
2022-12-24T01:15:14.121Z,12.00
2022-12-24T01:17:48.377Z,12.23
2022-12-24T01:20:18.984Z,12.20
2022-12-24T01:22:50.426Z,11.15
2022-12-24T01:25:26.233Z,11.25
2022-12-24T01:27:55.306Z,11.70
2022-12-24T01:30:37.657Z,9.80
2022-12-24T01:33:17.759Z,11.57
2022-12-24T01:38:37.236Z,10.27
2022-12-24T01:44:37.458Z,11.60
2022-12-24T01:47:32.773Z,9.65
2022-12-24T01:50:24.236Z,9.85
2022-12-24T01:52:53.409Z,11.02
2022-12-24T01:55:37.491Z,11.45
2022-12-24T01:58:09.603Z,10.70
2022-12-24T02:00:38.735Z,9.07
2022-12-24T02:03:21.473Z,9.93
2022-12-24T02:05:52.513Z,10.32
2022-12-24T02:08:22.217Z,9.43
2022-12-24T02:10:59.707Z,10.07
2022-12-24T02:13:29.039Z,10.02
2022-12-24T02:16:08.244Z,9.88
2022-12-24T02:18:45.905Z,9.35
2022-12-24T02:21:42.113Z,9.70
2022-12-24T02:24:45.706Z,9.88
2022-12-24T02:27:44.655Z,10.80
2022-12-24T02:30:33.034Z,10.65
2022-12-24T02:33:16.525Z,10.35
2022-12-24T02:36:10.014Z,9.60
2022-12-24T02:38:44.661Z,11.18
2022-12-24T02:41:24.909Z,9.13
2022-12-24T02:44:02.593Z,10.80
2022-12-24T02:46:43.889Z,10.70
2022-12-24T02:49:13.762Z,11.15
2022-12-24T02:51:43.014Z,11.00
2022-12-24T02:54:19.007Z,10.70
2022-12-24T02:57:18.795Z,10.90
2022-12-24T03:00:03.525Z,10.02
2022-12-24T03:02:56.152Z,10.82
2022-12-24T03:05:53.124Z,11.27
2022-12-24T03:08:45.453Z,11.35
2022-12-24T03:11:20.537Z,11.90
2022-12-24T03:13:54.245Z,12.43
2022-12-24T03:16:29.206Z,12.63
2022-12-24T03:19:01.815Z,13.82
2022-12-24T03:24:30.198Z,16.50
2022-12-24T03:27:01.371Z,17.35
2022-12-24T03:32:25.852Z,17.13
2022-12-24T03:35:02.842Z,15.45
2022-12-24T03:37:32.310Z,15.57
2022-12-24T03:40:16.262Z,15.18
2022-12-24T03:42:45.509Z,14.90
2022-12-24T03:45:14.597Z,13.13
2022-12-24T03:47:53.692Z,15.55
2022-12-24T03:50:38.014Z,16.30
2022-12-24T03:56:13.834Z,21.50
2022-12-24T03:58:44.330Z,18.00
2022-12-24T04:01:13.502Z,19.23
2022-12-24T04:03:42.768Z,18.40
2022-12-24T04:06:32.375Z,19.23
2022-12-24T04:09:20.738Z,19.13
2022-12-24T04:11:49.929Z,19.17
2022-12-24T04:14:19.126Z,19.90
2022-12-24T04:19:54.275Z,19.98
2022-12-24T04:22:25.869Z,21.25
2022-12-24T04:24:54.992Z,21.67
2022-12-24T04:27:37.079Z,21.65
2022-12-24T04:30:20.607Z,20.52
2022-12-24T04:32:51.912Z,18.00
2022-12-24T04:35:39.037Z,16.50
2022-12-24T04:38:23.713Z,18.30
2022-12-24T04:41:05.444Z,18.30
2022-12-24T04:43:35.217Z,17.85
2022-12-24T04:46:09.322Z,17.33
2022-12-24T04:48:51.642Z,17.25
2022-12-24T04:51:21.499Z,16.17
2022-12-24T04:53:52.610Z,14.27
2022-12-24T04:56:37.193Z,15.80
2022-12-24T04:59:06.354Z,15.27
2022-12-24T05:01:48.844Z,14.40
2022-12-24T05:06:53.436Z,14.65
2022-12-24T05:09:24.440Z,15.43
2022-12-24T05:11:54.156Z,16.13
2022-12-24T05:14:23.687Z,13.98
2022-12-24T05:17:10.841Z,14.38
2022-12-24T05:19:40.040Z,14.30
2022-12-24T05:25:12.269Z,14.60
2022-12-24T05:30:43.343Z,14.25
2022-12-24T05:36:07.176Z,12.25
2022-12-24T05:41:09.012Z,13.27
2022-12-24T05:43:51.737Z,14.07
2022-12-24T05:46:23.359Z,14.85
2022-12-24T05:48:54.120Z,14.57
2022-12-24T05:51:24.998Z,15.30
2022-12-24T05:53:56.311Z,16.10
2022-12-24T05:56:27.909Z,14.88
2022-12-24T05:59:10.081Z,15.38
2022-12-24T06:04:40.937Z,14.63
2022-12-24T06:07:10.219Z,15.52
2022-12-24T06:09:52.207Z,15.45
2022-12-24T06:12:36.359Z,16.13
2022-12-24T06:15:23.636Z,15.40
2022-12-24T06:17:53.452Z,15.45
2022-12-24T06:20:37.321Z,15.88
2022-12-24T06:23:08.769Z,16.00
2022-12-24T06:25:42.901Z,15.98
2022-12-24T06:28:26.925Z,15.80
2022-12-24T06:31:02.351Z,16.90
2022-12-24T06:33:37.765Z,15.87
2022-12-24T06:36:38.274Z,16.20
2022-12-24T06:39:20.494Z,16.08
2022-12-24T06:41:49.699Z,15.57
2022-12-24T06:44:20.776Z,16.08
2022-12-24T06:47:07.956Z,16.85
2022-12-24T06:49:50.114Z,17.33
2022-12-24T06:52:37.571Z,16.52
2022-12-24T06:55:20.830Z,16.05
2022-12-24T06:58:02.985Z,15.30
2022-12-24T07:00:34.233Z,15.15
2022-12-24T07:03:04.091Z,15.68
2022-12-24T07:05:33.196Z,15.85
2022-12-24T07:08:07.749Z,16.10
2022-12-24T07:10:37.065Z,15.70
2022-12-24T07:13:19.166Z,15.30
2022-12-24T07:16:12.509Z,15.20
2022-12-24T07:18:42.404Z,16.85
2022-12-24T07:21:12.139Z,17.60
2022-12-24T07:23:59.382Z,15.85
2022-12-24T07:28:57.682Z,14.38
2022-12-24T07:31:29.297Z,15.00
2022-12-24T07:33:58.457Z,13.55
2022-12-24T07:36:45.760Z,15.95
2022-12-24T07:39:28.046Z,15.68
2022-12-24T07:42:02.271Z,15.55
2022-12-24T07:44:31.770Z,14.18
2022-12-24T07:47:02.911Z,15.25
2022-12-24T07:49:45.274Z,15.98
2022-12-24T07:52:34.061Z,15.27
2022-12-24T07:55:03.494Z,14.57
2022-12-24T07:57:45.803Z,14.80
2022-12-24T08:00:15.833Z,15.02
2022-12-24T08:02:47.016Z,13.43
2022-12-24T08:05:21.498Z,15.30
2022-12-24T08:08:03.624Z,14.93
2022-12-24T08:10:32.897Z,16.08
2022-12-24T08:13:01.903Z,15.57
2022-12-24T08:15:49.411Z,14.60
2022-12-24T08:18:25.876Z,15.73
2022-12-24T08:21:02.532Z,15.70
2022-12-24T08:23:31.670Z,16.30
2022-12-24T08:26:21.947Z,16.67
2022-12-24T08:28:51.209Z,17.27
2022-12-24T08:31:20.358Z,14.63
2022-12-24T08:33:51.468Z,14.88
2022-12-24T08:36:20.680Z,14.23
2022-12-24T08:38:49.733Z,14.18
2022-12-24T08:41:18.866Z,13.90
2022-12-24T08:43:47.863Z,13.57
2022-12-24T08:46:17.030Z,14.88
2022-12-24T08:48:51.452Z,14.30
2022-12-24T08:51:24.243Z,13.77
2022-12-24T08:53:53.740Z,13.57
2022-12-24T08:56:22.795Z,13.70
2022-12-24T08:58:57.127Z,13.77
2022-12-24T09:01:26.722Z,13.43
2022-12-24T09:04:06.069Z,12.27
2022-12-24T09:06:42.909Z,12.52
2022-12-24T09:09:12.154Z,12.52
2022-12-24T09:11:54.264Z,12.32
2022-12-24T09:14:33.804Z,11.80
2022-12-24T09:17:02.999Z,12.77
2022-12-24T09:19:50.277Z,12.27
2022-12-24T09:22:34.506Z,11.85
2022-12-24T09:25:04.387Z,11.13
2022-12-24T09:27:46.714Z,11.50
2022-12-24T09:30:21.103Z,11.15
2022-12-24T09:32:50.291Z,11.95
2022-12-24T09:35:19.663Z,11.90
2022-12-24T09:38:02.370Z,11.98
2022-12-24T09:40:50.360Z,12.05
2022-12-24T09:43:22.092Z,11.85
2022-12-24T09:48:48.582Z,11.68
2022-12-24T09:51:39.464Z,11.68
2022-12-24T09:54:20.554Z,11.48
2022-12-24T09:56:50.702Z,11.80
2022-12-24T09:59:23.709Z,11.57
2022-12-24T10:01:56.017Z,11.48
2022-12-24T10:04:33.957Z,12.13
2022-12-24T10:07:16.861Z,12.40
2022-12-24T10:09:54.326Z,12.38
2022-12-24T10:12:46.012Z,12.38
2022-12-24T10:15:40.968Z,12.27
2022-12-24T10:18:32.787Z,11.93
2022-12-24T10:21:32.880Z,12.73
2022-12-24T10:24:20.991Z,12.98
2022-12-24T10:26:58.313Z,12.75
2022-12-24T10:29:31.391Z,12.98
2022-12-24T10:32:16.159Z,11.35
2022-12-24T10:37:50.681Z,12.48
2022-12-24T10:40:41.977Z,13.50
2022-12-24T10:43:18.857Z,13.90
2022-12-24T10:46:04.100Z,13.93
2022-12-24T10:48:55.377Z,13.75
2022-12-24T10:51:38.531Z,13.45
2022-12-24T10:54:14.010Z,13.00
2022-12-24T10:56:44.931Z,13.65
2022-12-24T10:59:43.670Z,13.88
2022-12-24T11:02:29.430Z,14.63
2022-12-24T11:05:00.392Z,14.73
2022-12-24T11:07:31.476Z,14.52
2022-12-24T11:10:20.059Z,14.17
2022-12-24T11:13:12.704Z,13.63
2022-12-24T11:15:56.307Z,14.30
2022-12-24T11:18:38.583Z,13.98
2022-12-24T11:21:08.603Z,13.50
2022-12-24T11:23:50.712Z,13.63
2022-12-24T11:26:24.504Z,14.18
2022-12-24T11:29:27.606Z,13.88
2022-12-24T11:32:18.718Z,14.90
2022-12-24T11:34:47.969Z,15.07
2022-12-24T11:37:20.705Z,15.07
2022-12-24T11:39:52.815Z,15.32
2022-12-24T11:42:43.218Z,14.43
2022-12-24T11:45:26.487Z,13.50
2022-12-24T11:48:11.033Z,14.45
2022-12-24T11:50:40.802Z,11.27
2022-12-24T11:53:30.027Z,12.55
2022-12-24T11:56:23.106Z,12.90
2022-12-24T11:58:59.481Z,11.20
2022-12-24T12:01:36.169Z,11.85
2022-12-24T12:04:28.988Z,10.57
2022-12-24T12:07:15.225Z,10.43
2022-12-24T12:09:50.140Z,9.23
2022-12-24T12:12:24.293Z,8.82
2022-12-24T12:14:57.107Z,8.85
2022-12-24T12:17:38.223Z,9.57
2022-12-24T12:20:20.982Z,9.52
2022-12-24T12:23:09.966Z,10.10
2022-12-24T12:25:46.572Z,10.65
2022-12-24T12:28:22.662Z,9.32
2022-12-24T12:31:02.973Z,9.43
2022-12-24T12:33:42.350Z,9.93
2022-12-24T12:36:21.079Z,9.15
2022-12-24T12:38:50.747Z,9.05
2022-12-24T12:41:34.712Z,9.35
2022-12-24T12:44:24.198Z,9.52
2022-12-24T12:54:56.033Z,7.63
2022-12-24T12:57:43.677Z,7.38
2022-12-24T13:00:30.655Z,6.32
2022-12-24T13:03:37.106Z,6.25
2022-12-24T13:06:33.970Z,5.57
2022-12-24T13:09:39.399Z,5.07
2022-12-24T13:13:01.614Z,5.30
2022-12-24T13:15:52.936Z,5.00
2022-12-24T13:18:54.583Z,4.80
2022-12-24T13:21:27.059Z,5.07
2022-12-24T13:24:11.970Z,3.75
2022-12-24T13:26:41.611Z,5.00
2022-12-24T13:29:42.075Z,4.95
2022-12-24T13:32:53.739Z,5.30
2022-12-24T13:38:35.633Z,4.72
2022-12-24T13:41:39.526Z,4.53
2022-12-24T13:44:38.142Z,4.90
2022-12-24T13:47:32.724Z,5.13
2022-12-24T13:50:23.010Z,5.35
2022-12-24T13:52:57.788Z,4.43
2022-12-24T13:55:27.145Z,4.80
2022-12-24T13:58:13.379Z,4.53
2022-12-24T14:00:47.814Z,4.78
2022-12-24T14:03:44.495Z,3.97
2022-12-24T14:06:36.000Z,4.97
2022-12-24T14:09:10.978Z,4.93
2022-12-24T14:12:16.305Z,4.78
2022-12-24T14:14:46.215Z,4.35
2022-12-24T14:17:26.036Z,4.00
2022-12-24T14:20:10.951Z,4.90
2022-12-24T14:22:46.149Z,4.85
2022-12-24T14:25:19.363Z,4.50
2022-12-24T14:27:54.140Z,4.32
2022-12-24T14:30:24.837Z,4.63
2022-12-24T14:32:56.537Z,4.13
2022-12-24T14:38:01.631Z,4.25
2022-12-24T14:40:46.539Z,5.07
2022-12-24T14:43:25.691Z,4.88
2022-12-24T14:46:06.825Z,4.80
2022-12-24T14:48:44.702Z,4.87
2022-12-24T14:51:27.127Z,5.00
2022-12-24T14:54:43.270Z,4.90
2022-12-24T14:57:37.521Z,4.97
2022-12-24T15:00:39.291Z,5.10
2022-12-24T15:03:14.814Z,4.82
2022-12-24T15:06:00.508Z,4.95
2022-12-24T15:08:48.403Z,5.47
2022-12-24T15:11:34.268Z,4.88
2022-12-24T15:14:04.053Z,4.93
2022-12-24T15:16:36.612Z,4.75
2022-12-24T15:19:14.799Z,5.22
2022-12-24T15:21:58.984Z,4.90
2022-12-24T15:24:31.860Z,5.20
2022-12-24T15:27:36.901Z,5.32
2022-12-24T15:30:17.389Z,5.40
2022-12-24T15:32:46.631Z,5.10
2022-12-24T15:35:35.053Z,5.10
2022-12-24T15:38:07.235Z,4.57
2022-12-24T15:40:36.539Z,4.22
2022-12-24T15:43:13.055Z,4.80
2022-12-24T15:45:59.705Z,3.50
2022-12-24T15:48:32.183Z,3.72
2022-12-24T15:51:04.751Z,4.07
2022-12-24T15:53:52.451Z,3.53
2022-12-24T15:56:33.993Z,4.85
2022-12-24T15:59:46.925Z,5.10
2022-12-24T16:02:54.805Z,3.85
2022-12-24T16:05:41.781Z,5.00
2022-12-24T16:08:43.669Z,2.92
2022-12-24T16:11:20.542Z,4.30
2022-12-24T16:14:04.853Z,4.93
2022-12-24T16:16:37.656Z,5.00
2022-12-24T16:19:10.281Z,4.70
2022-12-24T16:21:45.192Z,5.18
2022-12-24T16:24:22.219Z,5.20
2022-12-24T16:26:53.914Z,4.97
2022-12-24T16:29:24.174Z,4.65
2022-12-24T16:31:54.882Z,4.78
2022-12-24T16:34:40.212Z,5.03
2022-12-24T16:37:22.293Z,5.47
2022-12-24T16:43:01.970Z,4.90
2022-12-24T16:45:31.995Z,4.53
2022-12-24T16:48:14.908Z,4.97
2022-12-24T16:50:44.331Z,5.20
2022-12-24T16:53:32.434Z,5.03
2022-12-24T16:56:04.078Z,4.38
2022-12-24T16:58:50.816Z,4.75
2022-12-24T17:01:35.214Z,4.28
2022-12-24T17:04:04.555Z,4.43
2022-12-24T17:06:46.621Z,4.10
2022-12-24T17:11:44.581Z,4.53
2022-12-24T17:14:20.139Z,4.85
2022-12-24T17:17:01.857Z,5.20
2022-12-24T17:19:43.968Z,4.90
2022-12-24T17:24:44.144Z,4.53
2022-12-24T17:27:14.583Z,4.88
2022-12-24T17:30:01.894Z,5.18
2022-12-24T17:32:36.927Z,5.88
2022-12-24T17:35:19.479Z,5.97
2022-12-24T17:38:01.618Z,5.75
2022-12-24T17:40:55.042Z,5.07
2022-12-24T17:43:24.227Z,6.00
2022-12-24T17:45:53.386Z,6.13
2022-12-24T17:48:29.618Z,5.30
2022-12-24T17:51:11.766Z,5.38
2022-12-24T17:56:12.382Z,6.18
2022-12-24T17:58:42.406Z,4.55
2022-12-24T18:01:13.538Z,5.50
2022-12-24T18:03:46.386Z,4.65
2022-12-24T18:06:16.789Z,5.20
2022-12-24T18:08:56.149Z,5.18
2022-12-24T18:11:33.407Z,4.30
2022-12-24T18:14:07.770Z,5.10
2022-12-24T18:16:43.771Z,4.18
2022-12-24T18:19:14.943Z,3.65
2022-12-24T18:21:50.720Z,3.90
2022-12-24T18:24:20.392Z,4.20
2022-12-24T18:26:50.195Z,5.43
2022-12-24T18:29:19.575Z,4.32
2022-12-24T18:31:48.745Z,4.63
2022-12-24T18:34:23.777Z,4.72
2022-12-24T18:36:55.448Z,4.43
2022-12-24T18:41:58.958Z,4.30
2022-12-24T18:44:28.153Z,3.90
2022-12-24T18:46:57.330Z,4.38
2022-12-24T18:49:28.660Z,3.97
2022-12-24T18:51:57.867Z,3.67
2022-12-24T18:54:27.124Z,4.38
2022-12-24T18:57:01.314Z,3.25
2022-12-24T18:59:30.647Z,3.03
2022-12-24T19:01:59.907Z,3.25
2022-12-24T19:04:35.844Z,2.90
2022-12-24T19:07:05.267Z,2.83
2022-12-24T19:09:34.292Z,2.97
2022-12-24T19:12:05.290Z,2.95
2022-12-24T19:14:34.711Z,2.90
2022-12-24T19:17:03.891Z,2.95
2022-12-24T19:19:35.342Z,2.88
2022-12-24T19:22:09.694Z,3.08
2022-12-24T19:24:39.066Z,1.92
2022-12-24T19:27:08.114Z,2.92
2022-12-24T19:29:37.522Z,2.92
2022-12-24T19:32:07.904Z,3.00
2022-12-24T19:34:44.189Z,2.50
2022-12-24T19:37:18.420Z,2.90
2022-12-24T19:39:47.581Z,3.22
2022-12-24T19:42:23.065Z,2.60
2022-12-24T19:44:52.388Z,2.17
2022-12-24T19:47:21.452Z,2.50
2022-12-24T19:49:52.573Z,2.13
2022-12-24T19:52:21.778Z,2.08
2022-12-24T19:54:50.960Z,2.80
2022-12-24T19:59:55.310Z,2.55
2022-12-24T20:02:24.571Z,2.63
2022-12-24T20:04:55.948Z,2.90
2022-12-24T20:07:25.170Z,2.50
2022-12-24T20:09:54.348Z,2.60
2022-12-24T20:12:23.602Z,2.63
2022-12-24T20:14:57.245Z,3.03
2022-12-24T20:17:27.777Z,2.03
2022-12-24T20:20:01.284Z,2.97
2022-12-24T20:22:30.825Z,2.90
2022-12-24T20:24:59.878Z,2.78
2022-12-24T20:27:29.063Z,2.28
2022-12-24T20:30:03.078Z,2.95
2022-12-24T20:32:33.257Z,2.90
2022-12-24T20:35:11.440Z,2.70
2022-12-24T20:37:46.939Z,3.00
2022-12-24T20:40:16.605Z,3.38
2022-12-24T20:42:48.136Z,3.00
2022-12-24T20:45:22.470Z,3.00
2022-12-24T20:47:52.021Z,3.53
2022-12-24T20:53:05.137Z,3.22
2022-12-24T20:55:34.185Z,3.53
2022-12-24T20:58:03.701Z,2.85
2022-12-24T21:00:32.876Z,3.58
2022-12-24T21:03:02.471Z,3.28
2022-12-24T21:05:33.659Z,3.30
2022-12-24T21:08:03.040Z,2.50
2022-12-24T21:10:34.484Z,3.42
2022-12-24T21:13:04.227Z,3.35
2022-12-24T21:15:35.115Z,3.28
2022-12-24T21:18:12.265Z,3.57
2022-12-24T21:23:24.585Z,2.90
2022-12-24T21:26:00.495Z,3.05
2022-12-24T21:28:30.504Z,3.45
2022-12-24T21:31:01.329Z,3.55
2022-12-24T21:33:41.502Z,3.27
2022-12-24T21:36:13.781Z,3.63
2022-12-24T21:38:43.912Z,3.50
2022-12-24T21:41:14.616Z,3.35
2022-12-24T21:46:26.780Z,3.33
2022-12-24T21:51:41.642Z,2.97
2022-12-24T21:54:26.491Z,3.13
2022-12-24T21:57:15.703Z,3.13
2022-12-24T21:59:45.453Z,2.92
2022-12-24T22:02:16.262Z,3.72
2022-12-24T22:04:46.152Z,3.97
2022-12-24T22:07:49.214Z,3.70
2022-12-24T22:10:37.927Z,3.08
2022-12-24T22:13:09.041Z,4.30
2022-12-24T22:15:55.800Z,3.83
2022-12-24T22:18:27.418Z,3.58
2022-12-24T22:20:57.635Z,3.60
2022-12-24T22:23:28.750Z,3.85
2022-12-24T22:25:58.855Z,3.80
2022-12-24T22:28:30.259Z,3.55
2022-12-24T22:30:59.704Z,4.00
2022-12-24T22:33:35.197Z,3.63
2022-12-24T22:36:11.563Z,3.70
2022-12-24T22:38:44.679Z,3.70
2022-12-24T22:41:15.990Z,3.70
2022-12-24T22:43:45.820Z,3.83
2022-12-24T22:46:16.168Z,3.55
2022-12-24T22:48:50.719Z,3.90
2022-12-24T22:51:24.692Z,3.78
2022-12-24T22:53:57.171Z,3.63
2022-12-24T22:56:26.505Z,3.75
2022-12-24T22:58:55.960Z,4.10
2022-12-24T23:01:34.592Z,4.30
2022-12-24T23:04:05.453Z,3.97
2022-12-24T23:06:45.439Z,3.53
2022-12-24T23:09:17.703Z,4.10
2022-12-24T23:11:47.079Z,4.00
2022-12-24T23:14:34.311Z,3.50
2022-12-24T23:17:03.805Z,3.55
2022-12-24T23:19:33.807Z,4.00
2022-12-24T23:22:05.440Z,3.90
2022-12-24T23:24:37.566Z,3.53
2022-12-24T23:27:07.652Z,3.47
2022-12-24T23:29:36.838Z,3.63
2022-12-24T23:32:11.002Z,3.75
2022-12-24T23:34:40.172Z,3.67
2022-12-24T23:37:09.282Z,2.22
2022-12-24T23:39:40.393Z,2.10
2022-12-24T23:42:09.494Z,1.80
2022-12-24T23:44:43.632Z,2.20
2022-12-24T23:47:17.034Z,2.17
2022-12-24T23:49:49.083Z,2.40
2022-12-24T23:52:23.406Z,1.90
2022-12-24T23:54:54.609Z,2.40
2022-12-24T23:57:23.890Z,2.03
2022-12-24T23:59:58.041Z,2.80
